sensor_id;sensor_type;location;lat;lon;timestamp;pressure;altitude;pressure_sealevel;temperature;humidity
9822;BME280;4950;46.042;14.472;2023-04-23T00:01:07;97647.50;;;12.66;72.65
9822;BME280;4950;46.042;14.472;2023-04-23T00:03:35;97643.69;;;12.68;72.56
9822;BME280;4950;46.042;14.472;2023-04-23T00:06:04;97645.25;;;12.62;72.63
9822;BME280;4950;46.042;14.472;2023-04-23T00:08:33;97645.44;;;12.61;72.97
9822;BME280;4950;46.042;14.472;2023-04-23T00:11:01;97643.03;;;12.59;72.74
9822;BME280;4950;46.042;14.472;2023-04-23T00:13:28;97647.03;;;12.55;72.52
9822;BME280;4950;46.042;14.472;2023-04-23T00:15:55;97652.56;;;12.45;72.75
9822;BME280;4950;46.042;14.472;2023-04-23T00:18:22;97650.38;;;12.42;72.84
9822;BME280;4950;46.042;14.472;2023-04-23T00:20:48;97645.53;;;12.39;73.02
9822;BME280;4950;46.042;14.472;2023-04-23T00:23:15;97650.56;;;12.41;72.95
9822;BME280;4950;46.042;14.472;2023-04-23T00:25:43;97650.31;;;12.36;73.08
9822;BME280;4950;46.042;14.472;2023-04-23T00:28:10;97651.25;;;12.28;73.29
9822;BME280;4950;46.042;14.472;2023-04-23T00:30:36;97640.44;;;12.24;73.52
9822;BME280;4950;46.042;14.472;2023-04-23T00:33:03;97640.56;;;12.16;73.65
9822;BME280;4950;46.042;14.472;2023-04-23T00:35:30;97641.59;;;12.15;73.90
9822;BME280;4950;46.042;14.472;2023-04-23T00:37:57;97649.75;;;12.12;73.81
9822;BME280;4950;46.042;14.472;2023-04-23T00:40:23;97644.28;;;12.00;74.26
9822;BME280;4950;46.042;14.472;2023-04-23T00:42:51;97637.16;;;11.88;74.73
9822;BME280;4950;46.042;14.472;2023-04-23T00:45:19;97640.41;;;11.90;74.87
9822;BME280;4950;46.042;14.472;2023-04-23T00:47:47;97638.53;;;11.83;75.12
9822;BME280;4950;46.042;14.472;2023-04-23T00:50:13;97637.69;;;11.83;75.15
9822;BME280;4950;46.042;14.472;2023-04-23T00:52:40;97631.28;;;11.79;75.39
9822;BME280;4950;46.042;14.472;2023-04-23T00:55:07;97642.25;;;11.74;75.66
9822;BME280;4950;46.042;14.472;2023-04-23T00:57:35;97641.56;;;11.65;76.56
9822;BME280;4950;46.042;14.472;2023-04-23T01:00:06;97637.78;;;11.68;76.55
9822;BME280;4950;46.042;14.472;2023-04-23T01:02:33;97639.38;;;11.69;76.17
9822;BME280;4950;46.042;14.472;2023-04-23T01:05:00;97643.97;;;11.67;76.63
9822;BME280;4950;46.042;14.472;2023-04-23T01:07:30;97641.06;;;11.55;76.94
9822;BME280;4950;46.042;14.472;2023-04-23T01:09:57;97645.84;;;11.52;77.44
9822;BME280;4950;46.042;14.472;2023-04-23T01:12:25;97643.84;;;11.54;77.21
9822;BME280;4950;46.042;14.472;2023-04-23T01:14:52;97639.03;;;11.51;77.24
9822;BME280;4950;46.042;14.472;2023-04-23T01:17:20;97645.84;;;11.52;77.41
9822;BME280;4950;46.042;14.472;2023-04-23T01:19:47;97646.22;;;11.49;77.54
9822;BME280;4950;46.042;14.472;2023-04-23T01:22:15;97647.19;;;11.48;77.69
9822;BME280;4950;46.042;14.472;2023-04-23T01:24:42;97642.91;;;11.40;78.07
9822;BME280;4950;46.042;14.472;2023-04-23T01:27:09;97651.09;;;11.37;78.33
9822;BME280;4950;46.042;14.472;2023-04-23T01:29:37;97646.25;;;11.34;78.61
9822;BME280;4950;46.042;14.472;2023-04-23T01:32:04;97645.28;;;11.35;78.40
9822;BME280;4950;46.042;14.472;2023-04-23T01:34:32;97638.72;;;11.39;78.44
9822;BME280;4950;46.042;14.472;2023-04-23T01:37:01;97644.72;;;11.39;78.17
9822;BME280;4950;46.042;14.472;2023-04-23T01:39:30;97640.88;;;11.35;77.83
9822;BME280;4950;46.042;14.472;2023-04-23T01:41:57;97646.63;;;11.31;78.63
9822;BME280;4950;46.042;14.472;2023-04-23T01:44:24;97647.44;;;11.31;78.55
9822;BME280;4950;46.042;14.472;2023-04-23T01:46:51;97641.25;;;11.32;78.42
9822;BME280;4950;46.042;14.472;2023-04-23T01:49:18;97638.66;;;11.32;78.46
9822;BME280;4950;46.042;14.472;2023-04-23T01:51:45;97644.22;;;11.29;78.58
9822;BME280;4950;46.042;14.472;2023-04-23T01:54:12;97638.78;;;11.24;78.87
9822;BME280;4950;46.042;14.472;2023-04-23T01:56:40;97631.53;;;11.19;78.96
9822;BME280;4950;46.042;14.472;2023-04-23T01:59:06;97634.66;;;11.15;78.97
9822;BME280;4950;46.042;14.472;2023-04-23T02:01:43;97636.47;;;11.14;79.04
9822;BME280;4950;46.042;14.472;2023-04-23T02:04:13;97633.69;;;11.16;78.87
9822;BME280;4950;46.042;14.472;2023-04-23T02:06:42;97629.47;;;11.15;78.60
9822;BME280;4950;46.042;14.472;2023-04-23T02:09:09;97634.66;;;11.15;78.17
9822;BME280;4950;46.042;14.472;2023-04-23T02:11:36;97632.06;;;11.15;78.01
9822;BME280;4950;46.042;14.472;2023-04-23T02:14:04;97630.22;;;11.09;78.10
9822;BME280;4950;46.042;14.472;2023-04-23T02:16:31;97630.78;;;11.04;77.77
9822;BME280;4950;46.042;14.472;2023-04-23T02:18:58;97631.50;;;10.98;77.75
9822;BME280;4950;46.042;14.472;2023-04-23T02:21:26;97635.25;;;10.95;77.58
9822;BME280;4950;46.042;14.472;2023-04-23T02:23:54;97634.47;;;10.95;77.46
9822;BME280;4950;46.042;14.472;2023-04-23T02:26:21;97637.22;;;10.93;77.46
9822;BME280;4950;46.042;14.472;2023-04-23T02:28:49;97639.03;;;10.93;77.40
9822;BME280;4950;46.042;14.472;2023-04-23T02:31:17;97636.16;;;10.87;77.12
9822;BME280;4950;46.042;14.472;2023-04-23T02:33:45;97638.34;;;10.84;77.81
9822;BME280;4950;46.042;14.472;2023-04-23T02:36:12;97634.28;;;10.81;77.62
9822;BME280;4950;46.042;14.472;2023-04-23T02:38:38;97629.84;;;10.75;78.05
9822;BME280;4950;46.042;14.472;2023-04-23T02:41:06;97630.00;;;10.74;78.19
9822;BME280;4950;46.042;14.472;2023-04-23T02:43:33;97632.44;;;10.75;78.44
9822;BME280;4950;46.042;14.472;2023-04-23T02:46:00;97632.97;;;10.71;78.46
9822;BME280;4950;46.042;14.472;2023-04-23T02:48:37;97620.00;;;10.71;78.34
9822;BME280;4950;46.042;14.472;2023-04-23T02:51:05;97631.00;;;10.73;78.01
9822;BME280;4950;46.042;14.472;2023-04-23T02:53:32;97622.22;;;10.74;77.95
9822;BME280;4950;46.042;14.472;2023-04-23T02:55:58;97624.13;;;10.65;78.08
9822;BME280;4950;46.042;14.472;2023-04-23T02:58:25;97619.03;;;10.57;78.76
9822;BME280;4950;46.042;14.472;2023-04-23T03:00:52;97620.81;;;10.56;78.59
9822;BME280;4950;46.042;14.472;2023-04-23T03:03:19;97622.16;;;10.52;79.15
9822;BME280;4950;46.042;14.472;2023-04-23T03:05:47;97618.13;;;10.50;78.57
9822;BME280;4950;46.042;14.472;2023-04-23T03:08:14;97623.50;;;10.48;78.87
9822;BME280;4950;46.042;14.472;2023-04-23T03:10:41;97618.06;;;10.43;78.68
9822;BME280;4950;46.042;14.472;2023-04-23T03:13:08;97615.00;;;10.39;78.34
9822;BME280;4950;46.042;14.472;2023-04-23T03:15:35;97615.00;;;10.39;78.39
9822;BME280;4950;46.042;14.472;2023-04-23T03:18:01;97622.34;;;10.36;78.53
9822;BME280;4950;46.042;14.472;2023-04-23T03:20:30;97609.09;;;10.31;78.25
9822;BME280;4950;46.042;14.472;2023-04-23T03:22:58;97611.69;;;10.31;78.67
9822;BME280;4950;46.042;14.472;2023-04-23T03:25:25;97614.78;;;10.26;78.69
9822;BME280;4950;46.042;14.472;2023-04-23T03:27:51;97619.34;;;10.24;79.33
9822;BME280;4950;46.042;14.472;2023-04-23T03:30:19;97612.38;;;10.24;79.20
9822;BME280;4950;46.042;14.472;2023-04-23T03:32:45;97617.47;;;10.18;79.44
9822;BME280;4950;46.042;14.472;2023-04-23T03:35:12;97621.22;;;10.15;79.79
9822;BME280;4950;46.042;14.472;2023-04-23T03:37:39;97619.44;;;10.16;79.29
9822;BME280;4950;46.042;14.472;2023-04-23T03:40:08;97622.84;;;10.16;79.48
9822;BME280;4950;46.042;14.472;2023-04-23T03:42:35;97615.78;;;10.10;79.47
9822;BME280;4950;46.042;14.472;2023-04-23T03:45:02;97619.16;;;10.11;79.21
9822;BME280;4950;46.042;14.472;2023-04-23T03:47:29;97613.34;;;10.08;79.72
9822;BME280;4950;46.042;14.472;2023-04-23T03:49:55;97615.78;;;10.10;79.04
9822;BME280;4950;46.042;14.472;2023-04-23T03:52:22;97613.00;;;10.12;78.77
9822;BME280;4950;46.042;14.472;2023-04-23T03:54:49;97619.97;;;10.11;78.62
9822;BME280;4950;46.042;14.472;2023-04-23T03:57:17;97619.50;;;10.07;79.63
9822;BME280;4950;46.042;14.472;2023-04-23T03:59:44;97629.44;;;10.04;79.64
9822;BME280;4950;46.042;14.472;2023-04-23T04:02:10;97623.81;;;10.00;79.64
9822;BME280;4950;46.042;14.472;2023-04-23T04:04:37;97628.53;;;9.97;79.75
9822;BME280;4950;46.042;14.472;2023-04-23T04:07:04;97619.66;;;9.91;79.99
9822;BME280;4950;46.042;14.472;2023-04-23T04:09:31;97621.47;;;9.91;79.93
9822;BME280;4950;46.042;14.472;2023-04-23T04:11:58;97626.81;;;9.89;79.88
9822;BME280;4950;46.042;14.472;2023-04-23T04:14:26;97628.16;;;9.85;80.35
9822;BME280;4950;46.042;14.472;2023-04-23T04:16:53;97626.72;;;9.82;80.36
9822;BME280;4950;46.042;14.472;2023-04-23T04:19:21;97627.06;;;9.79;80.67
9822;BME280;4950;46.042;14.472;2023-04-23T04:21:48;97635.47;;;9.81;80.14
9822;BME280;4950;46.042;14.472;2023-04-23T04:24:15;97630.47;;;9.80;80.22
9822;BME280;4950;46.042;14.472;2023-04-23T04:26:42;97626.91;;;9.81;79.96
9822;BME280;4950;46.042;14.472;2023-04-23T04:29:09;97627.53;;;9.83;80.07
9822;BME280;4950;46.042;14.472;2023-04-23T04:31:38;97638.69;;;9.83;79.81
9822;BME280;4950;46.042;14.472;2023-04-23T04:34:04;97630.28;;;9.81;80.36
9822;BME280;4950;46.042;14.472;2023-04-23T04:36:31;97641.66;;;9.80;80.43
9822;BME280;4950;46.042;14.472;2023-04-23T04:38:59;97642.28;;;9.82;80.58
9822;BME280;4950;46.042;14.472;2023-04-23T04:41:27;97640.81;;;9.80;80.88
9822;BME280;4950;46.042;14.472;2023-04-23T04:43:54;97639.06;;;9.80;80.92
9822;BME280;4950;46.042;14.472;2023-04-23T04:46:23;97644.59;;;9.77;80.49
9822;BME280;4950;46.042;14.472;2023-04-23T04:48:52;97647.63;;;9.81;80.86
9822;BME280;4950;46.042;14.472;2023-04-23T04:51:18;97642.44;;;9.81;80.41
9822;BME280;4950;46.042;14.472;2023-04-23T04:53:45;97643.41;;;9.80;81.43
9822;BME280;4950;46.042;14.472;2023-04-23T04:56:12;97641.81;;;9.79;81.67
9822;BME280;4950;46.042;14.472;2023-04-23T04:58:39;97640.81;;;9.80;81.56
9822;BME280;4950;46.042;14.472;2023-04-23T05:01:05;97647.28;;;9.84;81.19
9822;BME280;4950;46.042;14.472;2023-04-23T05:03:32;97647.41;;;9.91;81.67
9822;BME280;4950;46.042;14.472;2023-04-23T05:06:00;97643.31;;;9.96;81.14
9822;BME280;4950;46.042;14.472;2023-04-23T05:08:27;97641.78;;;10.02;81.38
9822;BME280;4950;46.042;14.472;2023-04-23T05:10:53;97650.00;;;10.05;81.49
9822;BME280;4950;46.042;14.472;2023-04-23T05:13:21;97643.94;;;10.13;80.54
9822;BME280;4950;46.042;14.472;2023-04-23T05:15:47;97645.19;;;10.17;79.68
9822;BME280;4950;46.042;14.472;2023-04-23T05:18:14;97636.53;;;10.10;80.05
9822;BME280;4950;46.042;14.472;2023-04-23T05:20:41;97645.66;;;10.06;80.37
9822;BME280;4950;46.042;14.472;2023-04-23T05:23:09;97650.38;;;10.02;80.08
9822;BME280;4950;46.042;14.472;2023-04-23T05:25:35;97651.88;;;9.97;80.91
9822;BME280;4950;46.042;14.472;2023-04-23T05:28:02;97657.75;;;9.91;81.62
9822;BME280;4950;46.042;14.472;2023-04-23T05:30:29;97655.63;;;9.94;81.71
9822;BME280;4950;46.042;14.472;2023-04-23T05:32:56;97660.81;;;9.94;82.01
9822;BME280;4950;46.042;14.472;2023-04-23T05:35:22;97662.88;;;9.99;81.38
9822;BME280;4950;46.042;14.472;2023-04-23T05:37:49;97652.69;;;9.97;81.86
9822;BME280;4950;46.042;14.472;2023-04-23T05:40:17;97655.56;;;10.02;82.28
9822;BME280;4950;46.042;14.472;2023-04-23T05:42:44;97660.22;;;10.07;81.82
9822;BME280;4950;46.042;14.472;2023-04-23T05:45:11;97650.91;;;10.13;81.99
9822;BME280;4950;46.042;14.472;2023-04-23T05:47:37;97662.53;;;10.17;82.41
9822;BME280;4950;46.042;14.472;2023-04-23T05:50:05;97649.06;;;10.21;81.90
9822;BME280;4950;46.042;14.472;2023-04-23T05:52:32;97660.69;;;10.25;81.66
9822;BME280;4950;46.042;14.472;2023-04-23T05:55:01;97659.34;;;10.30;81.65
9822;BME280;4950;46.042;14.472;2023-04-23T05:57:29;97657.50;;;10.38;81.05
9822;BME280;4950;46.042;14.472;2023-04-23T05:59:56;97653.09;;;10.39;81.31
9822;BME280;4950;46.042;14.472;2023-04-23T06:02:23;97657.22;;;10.48;81.27
9822;BME280;4950;46.042;14.472;2023-04-23T06:04:49;97660.72;;;10.55;80.94
9822;BME280;4950;46.042;14.472;2023-04-23T06:07:16;97658.38;;;10.60;81.10
9822;BME280;4950;46.042;14.472;2023-04-23T06:09:43;97664.13;;;10.71;80.92
9822;BME280;4950;46.042;14.472;2023-04-23T06:12:09;97660.00;;;10.76;81.15
9822;BME280;4950;46.042;14.472;2023-04-23T06:14:37;97656.88;;;10.81;80.78
9822;BME280;4950;46.042;14.472;2023-04-23T06:17:04;97660.72;;;10.85;80.57
9822;BME280;4950;46.042;14.472;2023-04-23T06:19:31;97659.13;;;10.84;81.32
9822;BME280;4950;46.042;14.472;2023-04-23T06:21:57;97660.16;;;10.90;81.12
9822;BME280;4950;46.042;14.472;2023-04-23T06:24:24;97662.22;;;10.94;80.66
9822;BME280;4950;46.042;14.472;2023-04-23T06:26:51;97654.88;;;10.98;80.84
9822;BME280;4950;46.042;14.472;2023-04-23T06:29:18;97653.97;;;11.05;80.30
9822;BME280;4950;46.042;14.472;2023-04-23T06:31:46;97658.59;;;11.10;79.77
9822;BME280;4950;46.042;14.472;2023-04-23T06:34:13;97656.16;;;11.23;79.07
9822;BME280;4950;46.042;14.472;2023-04-23T06:36:39;97659.44;;;11.32;78.27
9822;BME280;4950;46.042;14.472;2023-04-23T06:39:07;97655.06;;;11.33;78.16
9822;BME280;4950;46.042;14.472;2023-04-23T06:41:34;97656.72;;;11.40;77.70
9822;BME280;4950;46.042;14.472;2023-04-23T06:44:01;97656.53;;;11.42;78.13
9822;BME280;4950;46.042;14.472;2023-04-23T06:46:28;97654.19;;;11.47;78.15
9822;BME280;4950;46.042;14.472;2023-04-23T06:48:56;97653.72;;;11.58;77.81
9822;BME280;4950;46.042;14.472;2023-04-23T06:51:24;97654.94;;;11.62;77.28
9822;BME280;4950;46.042;14.472;2023-04-23T06:53:51;97647.00;;;11.71;77.17
9822;BME280;4950;46.042;14.472;2023-04-23T06:56:18;97650.88;;;11.81;77.09
9822;BME280;4950;46.042;14.472;2023-04-23T06:58:45;97649.88;;;11.97;76.24
9822;BME280;4950;46.042;14.472;2023-04-23T07:01:12;97653.91;;;12.07;75.76
9822;BME280;4950;46.042;14.472;2023-04-23T07:03:39;97650.75;;;12.11;75.94
9822;BME280;4950;46.042;14.472;2023-04-23T07:06:10;97648.63;;;12.21;76.03
9822;BME280;4950;46.042;14.472;2023-04-23T07:08:36;97637.25;;;12.29;75.75
9822;BME280;4950;46.042;14.472;2023-04-23T07:11:04;97638.31;;;12.35;75.74
9822;BME280;4950;46.042;14.472;2023-04-23T07:13:31;97633.91;;;12.42;75.76
9822;BME280;4950;46.042;14.472;2023-04-23T07:15:58;97637.38;;;12.49;75.50
9822;BME280;4950;46.042;14.472;2023-04-23T07:18:24;97633.81;;;12.57;75.63
9822;BME280;4950;46.042;14.472;2023-04-23T07:20:51;97622.63;;;12.63;74.36
9822;BME280;4950;46.042;14.472;2023-04-23T07:23:19;97619.84;;;12.71;74.65
9822;BME280;4950;46.042;14.472;2023-04-23T07:25:46;97618.72;;;12.87;74.18
9822;BME280;4950;46.042;14.472;2023-04-23T07:28:13;97622.59;;;13.04;73.76
9822;BME280;4950;46.042;14.472;2023-04-23T07:30:39;97619.63;;;13.14;73.00
9822;BME280;4950;46.042;14.472;2023-04-23T07:33:06;97622.81;;;13.23;72.68
9822;BME280;4950;46.042;14.472;2023-04-23T07:35:33;97619.69;;;13.34;72.03
9822;BME280;4950;46.042;14.472;2023-04-23T07:38:00;97626.50;;;13.49;70.85
9822;BME280;4950;46.042;14.472;2023-04-23T07:40:28;97621.28;;;13.49;70.61
9822;BME280;4950;46.042;14.472;2023-04-23T07:42:54;97620.31;;;13.50;70.76
9822;BME280;4950;46.042;14.472;2023-04-23T07:45:23;97615.69;;;13.52;70.77
9822;BME280;4950;46.042;14.472;2023-04-23T07:47:50;97620.09;;;13.58;70.77
9822;BME280;4950;46.042;14.472;2023-04-23T07:50:16;97626.13;;;13.65;70.78
9822;BME280;4950;46.042;14.472;2023-04-23T07:52:43;97613.06;;;13.78;70.17
9822;BME280;4950;46.042;14.472;2023-04-23T07:55:10;97615.91;;;13.83;69.54
9822;BME280;4950;46.042;14.472;2023-04-23T07:57:38;97621.69;;;13.92;69.26
9822;BME280;4950;46.042;14.472;2023-04-23T08:00:06;97612.88;;;13.93;68.80
9822;BME280;4950;46.042;14.472;2023-04-23T08:02:34;97617.69;;;14.03;68.70
9822;BME280;4950;46.042;14.472;2023-04-23T08:05:00;97618.88;;;14.07;68.94
9822;BME280;4950;46.042;14.472;2023-04-23T08:07:27;97617.06;;;14.14;68.47
9822;BME280;4950;46.042;14.472;2023-04-23T08:09:54;97611.25;;;14.19;69.00
9822;BME280;4950;46.042;14.472;2023-04-23T08:12:23;97617.66;;;14.30;68.86
9822;BME280;4950;46.042;14.472;2023-04-23T08:14:51;97613.19;;;14.37;68.26
9822;BME280;4950;46.042;14.472;2023-04-23T08:17:18;97612.78;;;14.47;67.92
9822;BME280;4950;46.042;14.472;2023-04-23T08:19:44;97618.59;;;14.55;67.91
9822;BME280;4950;46.042;14.472;2023-04-23T08:22:11;97609.53;;;14.65;67.60
9822;BME280;4950;46.042;14.472;2023-04-23T08:24:38;97611.50;;;14.76;67.45
9822;BME280;4950;46.042;14.472;2023-04-23T08:27:05;97607.66;;;14.85;67.04
9822;BME280;4950;46.042;14.472;2023-04-23T08:29:32;97608.81;;;14.96;66.47
9822;BME280;4950;46.042;14.472;2023-04-23T08:32:00;97600.28;;;15.07;66.27
9822;BME280;4950;46.042;14.472;2023-04-23T08:34:26;97602.88;;;15.14;66.23
9822;BME280;4950;46.042;14.472;2023-04-23T08:36:53;97606.41;;;15.26;66.22
9822;BME280;4950;46.042;14.472;2023-04-23T08:39:20;97601.09;;;15.39;65.26
9822;BME280;4950;46.042;14.472;2023-04-23T08:41:53;97602.56;;;15.60;64.36
9822;BME280;4950;46.042;14.472;2023-04-23T08:44:21;97606.50;;;15.76;62.51
9822;BME280;4950;46.042;14.472;2023-04-23T08:46:48;97605.19;;;15.86;62.83
9822;BME280;4950;46.042;14.472;2023-04-23T08:49:18;97610.81;;;15.89;61.48
9822;BME280;4950;46.042;14.472;2023-04-23T08:51:46;97605.16;;;15.92;62.00
9822;BME280;4950;46.042;14.472;2023-04-23T08:54:17;97609.53;;;15.98;62.51
9822;BME280;4950;46.042;14.472;2023-04-23T08:56:45;97612.91;;;16.06;61.22
9822;BME280;4950;46.042;14.472;2023-04-23T08:59:11;97601.75;;;16.10;60.54
9822;BME280;4950;46.042;14.472;2023-04-23T09:01:39;97603.13;;;16.13;62.26
9822;BME280;4950;46.042;14.472;2023-04-23T09:04:06;97604.53;;;16.15;61.94
9822;BME280;4950;46.042;14.472;2023-04-23T09:06:35;97600.09;;;16.16;62.29
9822;BME280;4950;46.042;14.472;2023-04-23T09:09:02;97593.19;;;16.22;62.75
9822;BME280;4950;46.042;14.472;2023-04-23T09:11:31;97592.31;;;16.28;62.82
9822;BME280;4950;46.042;14.472;2023-04-23T09:13:59;97586.06;;;16.29;63.48
9822;BME280;4950;46.042;14.472;2023-04-23T09:16:26;97586.78;;;16.36;63.87
9822;BME280;4950;46.042;14.472;2023-04-23T09:18:53;97584.13;;;16.43;63.82
9822;BME280;4950;46.042;14.472;2023-04-23T09:21:19;97585.63;;;16.50;63.97
9822;BME280;4950;46.042;14.472;2023-04-23T09:23:50;97574.63;;;16.60;64.19
9822;BME280;4950;46.042;14.472;2023-04-23T09:26:19;97561.22;;;16.68;63.64
9822;BME280;4950;46.042;14.472;2023-04-23T09:28:48;97565.47;;;16.81;63.39
9822;BME280;4950;46.042;14.472;2023-04-23T09:31:18;97559.97;;;16.89;63.46
9822;BME280;4950;46.042;14.472;2023-04-23T09:33:50;97555.78;;;17.00;62.27
9822;BME280;4950;46.042;14.472;2023-04-23T09:36:19;97559.69;;;17.09;62.48
9822;BME280;4950;46.042;14.472;2023-04-23T09:38:47;97555.03;;;17.11;61.19
9822;BME280;4950;46.042;14.472;2023-04-23T09:41:26;97548.09;;;17.17;61.90
9822;BME280;4950;46.042;14.472;2023-04-23T09:43:53;97557.00;;;17.28;62.03
9822;BME280;4950;46.042;14.472;2023-04-23T09:46:32;97549.28;;;17.45;61.76
9822;BME280;4950;46.042;14.472;2023-04-23T09:49:00;97545.41;;;17.59;60.76
9822;BME280;4950;46.042;14.472;2023-04-23T09:51:28;97537.09;;;17.74;60.46
9822;BME280;4950;46.042;14.472;2023-04-23T09:53:56;97538.47;;;17.88;59.82
9822;BME280;4950;46.042;14.472;2023-04-23T09:56:24;97536.84;;;18.11;59.35
9822;BME280;4950;46.042;14.472;2023-04-23T09:58:51;97532.00;;;18.31;58.74
9822;BME280;4950;46.042;14.472;2023-04-23T10:01:26;97526.59;;;18.50;58.11
9822;BME280;4950;46.042;14.472;2023-04-23T10:03:54;97525.75;;;18.61;57.01
9822;BME280;4950;46.042;14.472;2023-04-23T10:06:26;97535.53;;;18.78;56.30
9822;BME280;4950;46.042;14.472;2023-04-23T10:08:54;97520.44;;;18.85;55.37
9822;BME280;4950;46.042;14.472;2023-04-23T10:11:22;97523.00;;;18.97;54.97
9822;BME280;4950;46.042;14.472;2023-04-23T10:13:52;97515.44;;;19.00;54.76
9822;BME280;4950;46.042;14.472;2023-04-23T10:16:20;97506.34;;;19.08;53.98
9822;BME280;4950;46.042;14.472;2023-04-23T10:18:49;97509.94;;;19.19;54.90
9822;BME280;4950;46.042;14.472;2023-04-23T10:21:17;97504.03;;;19.28;54.32
9822;BME280;4950;46.042;14.472;2023-04-23T10:23:46;97503.56;;;19.31;53.41
9822;BME280;4950;46.042;14.472;2023-04-23T10:26:14;97492.53;;;19.51;54.01
9822;BME280;4950;46.042;14.472;2023-04-23T10:28:43;97492.78;;;19.67;52.29
9822;BME280;4950;46.042;14.472;2023-04-23T10:31:14;97493.56;;;19.67;52.13
9822;BME280;4950;46.042;14.472;2023-04-23T10:33:42;97487.25;;;19.68;50.99
9822;BME280;4950;46.042;14.472;2023-04-23T10:36:09;97503.63;;;19.70;50.60
9822;BME280;4950;46.042;14.472;2023-04-23T10:38:37;97498.94;;;19.72;51.43
9822;BME280;4950;46.042;14.472;2023-04-23T10:41:04;97488.97;;;19.75;50.25
9822;BME280;4950;46.042;14.472;2023-04-23T10:43:33;97492.94;;;19.77;49.95
9822;BME280;4950;46.042;14.472;2023-04-23T10:46:00;97497.53;;;19.87;49.60
9822;BME280;4950;46.042;14.472;2023-04-23T10:48:28;97482.75;;;19.86;49.16
9822;BME280;4950;46.042;14.472;2023-04-23T10:50:58;97486.16;;;20.03;48.61
9822;BME280;4950;46.042;14.472;2023-04-23T10:53:25;97482.13;;;20.18;48.77
9822;BME280;4950;46.042;14.472;2023-04-23T10:56:04;97486.72;;;20.27;48.55
9822;BME280;4950;46.042;14.472;2023-04-23T11:01:12;97486.81;;;20.38;47.37
9822;BME280;4950;46.042;14.472;2023-04-23T11:03:40;97485.81;;;20.44;47.21
9822;BME280;4950;46.042;14.472;2023-04-23T11:06:07;97486.91;;;20.48;47.01
9822;BME280;4950;46.042;14.472;2023-04-23T11:08:34;97478.22;;;20.47;47.48
9822;BME280;4950;46.042;14.472;2023-04-23T11:11:06;97480.09;;;20.52;46.57
9822;BME280;4950;46.042;14.472;2023-04-23T11:13:33;97475.38;;;20.54;46.95
9822;BME280;4950;46.042;14.472;2023-04-23T11:16:13;97478.22;;;20.47;45.94
9822;BME280;4950;46.042;14.472;2023-04-23T11:18:58;97475.59;;;20.47;46.79
9822;BME280;4950;46.042;14.472;2023-04-23T11:21:55;97483.75;;;20.46;46.66
9822;BME280;4950;46.042;14.472;2023-04-23T11:24:22;97480.56;;;20.44;46.64
9822;BME280;4950;46.042;14.472;2023-04-23T11:26:50;97466.06;;;20.46;46.47
9822;BME280;4950;46.042;14.472;2023-04-23T11:29:20;97470.84;;;20.49;46.40
9822;BME280;4950;46.042;14.472;2023-04-23T11:31:48;97470.84;;;20.49;46.83
9822;BME280;4950;46.042;14.472;2023-04-23T11:34:17;97465.66;;;20.55;47.12
9822;BME280;4950;46.042;14.472;2023-04-23T11:36:45;97459.56;;;20.54;46.75
9822;BME280;4950;46.042;14.472;2023-04-23T11:39:12;97464.28;;;20.52;47.01
9822;BME280;4950;46.042;14.472;2023-04-23T11:41:39;97465.09;;;20.52;46.10
9822;BME280;4950;46.042;14.472;2023-04-23T11:44:07;97459.66;;;20.59;46.57
9822;BME280;4950;46.042;14.472;2023-04-23T11:46:34;97455.75;;;20.67;46.68
9822;BME280;4950;46.042;14.472;2023-04-23T11:49:01;97461.13;;;20.77;46.57
9822;BME280;4950;46.042;14.472;2023-04-23T11:51:29;97453.81;;;20.84;46.30
9822;BME280;4950;46.042;14.472;2023-04-23T11:54:02;97451.78;;;20.97;45.80
9822;BME280;4950;46.042;14.472;2023-04-23T11:56:29;97449.41;;;20.95;45.45
9822;BME280;4950;46.042;14.472;2023-04-23T11:58:59;97441.22;;;20.92;45.67
9822;BME280;4950;46.042;14.472;2023-04-23T12:01:42;97447.66;;;21.06;45.78
9822;BME280;4950;46.042;14.472;2023-04-23T12:04:10;97442.13;;;21.13;45.08
9822;BME280;4950;46.042;14.472;2023-04-23T12:06:39;97433.13;;;21.08;44.58
9822;BME280;4950;46.042;14.472;2023-04-23T12:09:06;97444.53;;;21.14;45.32
9822;BME280;4950;46.042;14.472;2023-04-23T12:11:34;97447.75;;;21.21;44.00
9822;BME280;4950;46.042;14.472;2023-04-23T12:14:01;97444.88;;;21.23;44.47
9822;BME280;4950;46.042;14.472;2023-04-23T12:16:36;97444.59;;;21.19;44.21
9822;BME280;4950;46.042;14.472;2023-04-23T12:19:04;97431.09;;;21.16;45.49
9822;BME280;4950;46.042;14.472;2023-04-23T12:21:33;97435.06;;;21.18;45.14
9822;BME280;4950;46.042;14.472;2023-04-23T12:24:02;97447.78;;;21.26;45.30
9822;BME280;4950;46.042;14.472;2023-04-23T12:26:29;97435.66;;;21.30;45.22
9822;BME280;4950;46.042;14.472;2023-04-23T12:28:58;97438.28;;;21.30;45.07
9822;BME280;4950;46.042;14.472;2023-04-23T12:31:26;97436.38;;;21.16;44.33
9822;BME280;4950;46.042;14.472;2023-04-23T12:33:56;97425.75;;;21.05;45.16
9822;BME280;4950;46.042;14.472;2023-04-23T12:36:27;97427.84;;;21.08;45.71
9822;BME280;4950;46.042;14.472;2023-04-23T12:39:23;97425.16;;;20.98;45.07
9822;BME280;4950;46.042;14.472;2023-04-23T12:41:51;97427.78;;;20.98;46.07
9822;BME280;4950;46.042;14.472;2023-04-23T12:44:19;97432.00;;;20.99;45.16
9822;BME280;4950;46.042;14.472;2023-04-23T12:46:48;97421.69;;;20.93;44.92
9822;BME280;4950;46.042;14.472;2023-04-23T12:49:15;97434.88;;;20.93;44.70
9822;BME280;4950;46.042;14.472;2023-04-23T12:51:42;97421.09;;;20.85;44.41
9822;BME280;4950;46.042;14.472;2023-04-23T12:54:10;97431.06;;;20.78;45.09
9822;BME280;4950;46.042;14.472;2023-04-23T12:56:38;97428.97;;;20.80;45.41
9822;BME280;4950;46.042;14.472;2023-04-23T12:59:05;97422.81;;;20.69;45.04
9822;BME280;4950;46.042;14.472;2023-04-23T13:01:31;97420.69;;;20.66;44.64
9822;BME280;4950;46.042;14.472;2023-04-23T13:03:58;97420.47;;;20.73;45.18
9822;BME280;4950;46.042;14.472;2023-04-23T13:06:25;97417.09;;;20.83;44.62
9822;BME280;4950;46.042;14.472;2023-04-23T13:08:53;97409.38;;;20.71;44.35
9822;BME280;4950;46.042;14.472;2023-04-23T13:11:21;97410.50;;;20.80;44.26
9822;BME280;4950;46.042;14.472;2023-04-23T13:13:49;97404.16;;;20.81;44.01
9822;BME280;4950;46.042;14.472;2023-04-23T13:16:16;97409.81;;;20.95;44.70
9822;BME280;4950;46.042;14.472;2023-04-23T13:18:43;97392.72;;;21.03;43.79